Salem, OR

6:43 PM PST on December 17, 2014 (GMT -0800)
Center & Cordon NE | Change Station
CLOSE
Current Station
Personal Weather Station
Location: Salem, OR
Elevation: 210 ft
Nearby Weather Stations
Active Advisory: Special Statement

Elev 210 ft 44.94 °N, 122.96 °W | Updated 7 seconds ago

Mostly Cloudy
Mostly Cloudy
48.2 °F
Feels Like 46 °F
N
5.9
Wind Variable Wind from SSW
Gusts 10.0 mph

Today
High -- | Low -- °F
--% Chance of Precip.
Yesterday
High -- | Low -- °F
Precip. -- in
7:44 AM 4:31 PM
Waning Crescent, 18% visible
Pressure 29.92 in
Visibility 10.0 miles
Clouds Scattered Clouds 3000 ft
Mostly Cloudy 8000 ft
Windchill 46 °F
Dew Point 46 °F
Humidity 91%
Rainfall 0.05 in
Snow Depth Not available.
UV 0 out of 12
Pollen .80 out of 12
Air Quality Not available.
Flu Activity Not available.
METAR KSLE 180156Z 17010KT 10SM SCT030 BKN080 09/07 A2991 RMK AO2 RAB06E26 SLP130 P0000 T00940067

More Conditions Fewer Conditions

Pressure 29.92 in
Visibility 10.0 miles
Clouds Scattered Clouds 3000 ft
Mostly Cloudy 8000 ft
Windchill 46 °F
Dew Point 46 °F
Humidity 91%
Rainfall 0.05 in
Snow Depth Not available.
UV 0 out of 12
Pollen .80 out of 12
Air Quality Not available.
Flu Activity Not available.
METAR KSLE 180156Z 17010KT 10SM SCT030 BKN080 09/07 A2991 RMK AO2 RAB06E26 SLP130 P0000 T00940067

More Conditions Fewer Conditions

10-Day Weather Forecast

Almanac

Astronomy

Dec. 17, 2014 Rise Set
Actual Time
Civil Twilight
Nautical Twilight
Astronomical Twilight
Moon
Length of Visible Light
Length of Day
Tomorrow will be .
, % of the Moon is Illuminated

Today's Extremes

State Highs State Lows

Community

WunderPhotos

Upload Photos

1,778,871 photos uploaded!

WunderBlogs® & News

Nearby

Air Quality

  Air Quality AQ Index Pollutant
Not available.

Snow Depth

Station Depth Elevation

Earthquake Activity

City Distance Mag. Time & Date
Minimum magnitude displayed is 2.5.

Coastal Water Temperatures

Place Temperature

Nearby Weather Stations